sensor_id;sensor_type;location;lat;lon;timestamp;pressure;altitude;pressure_sealevel;temperature;humidity
80733;BME280;70130;44.534;18.678;2023-06-19T00:01:44;99078.66;;;15.53;73.06
80733;BME280;70130;44.534;18.678;2023-06-19T00:04:10;99078.91;;;15.48;72.86
80733;BME280;70130;44.534;18.678;2023-06-19T00:06:36;99076.00;;;15.22;73.79
80733;BME280;70130;44.534;18.678;2023-06-19T00:09:02;99071.03;;;15.24;73.99
80733;BME280;70130;44.534;18.678;2023-06-19T00:11:28;99062.91;;;15.24;74.00
80733;BME280;70130;44.534;18.678;2023-06-19T00:13:54;99066.09;;;15.30;73.74
80733;BME280;70130;44.534;18.678;2023-06-19T00:16:19;99060.00;;;15.33;73.68
80733;BME280;70130;44.534;18.678;2023-06-19T00:18:46;99070.09;;;15.36;73.22
80733;BME280;70130;44.534;18.678;2023-06-19T00:21:12;99062.19;;;15.27;73.75
80733;BME280;70130;44.534;18.678;2023-06-19T00:23:37;99060.63;;;15.26;73.61
80733;BME280;70130;44.534;18.678;2023-06-19T00:26:03;99066.81;;;15.27;73.69
80733;BME280;70130;44.534;18.678;2023-06-19T00:28:30;99076.19;;;15.13;73.77
80733;BME280;70130;44.534;18.678;2023-06-19T00:30:56;99072.25;;;15.11;74.18
80733;BME280;70130;44.534;18.678;2023-06-19T00:33:22;99073.91;;;15.00;74.06
80733;BME280;70130;44.534;18.678;2023-06-19T00:35:50;99074.75;;;14.85;74.90
80733;BME280;70130;44.534;18.678;2023-06-19T00:38:16;99070.13;;;14.69;75.30
80733;BME280;70130;44.534;18.678;2023-06-19T00:40:41;99062.63;;;14.63;75.36
80733;BME280;70130;44.534;18.678;2023-06-19T00:43:08;99070.13;;;14.54;75.37
80733;BME280;70130;44.534;18.678;2023-06-19T00:45:35;99073.22;;;14.56;75.89
80733;BME280;70130;44.534;18.678;2023-06-19T00:48:01;99069.06;;;14.58;75.56
80733;BME280;70130;44.534;18.678;2023-06-19T00:50:28;99063.41;;;14.63;75.53
80733;BME280;70130;44.534;18.678;2023-06-19T00:52:58;99067.50;;;14.57;75.33
80733;BME280;70130;44.534;18.678;2023-06-19T00:55:26;99061.84;;;14.62;75.20
80733;BME280;70130;44.534;18.678;2023-06-19T00:57:53;99065.78;;;14.65;75.24
80733;BME280;70130;44.534;18.678;2023-06-19T01:00:19;99068.75;;;14.32;76.03
80733;BME280;70130;44.534;18.678;2023-06-19T01:02:46;99068.88;;;14.51;75.85
80733;BME280;70130;44.534;18.678;2023-06-19T01:05:12;99073.41;;;14.47;75.77
80733;BME280;70130;44.534;18.678;2023-06-19T01:08:00;99071.31;;;14.56;75.59
80733;BME280;70130;44.534;18.678;2023-06-19T01:10:36;99072.38;;;14.52;75.53
80733;BME280;70130;44.534;18.678;2023-06-19T01:13:06;99070.03;;;14.50;75.47
80733;BME280;70130;44.534;18.678;2023-06-19T01:15:35;99068.81;;;14.36;76.28
80733;BME280;70130;44.534;18.678;2023-06-19T01:18:01;99070.28;;;14.45;76.06
80733;BME280;70130;44.534;18.678;2023-06-19T01:20:28;99065.56;;;14.42;75.75
80733;BME280;70130;44.534;18.678;2023-06-19T01:22:54;99068.81;;;14.36;76.29
80733;BME280;70130;44.534;18.678;2023-06-19T01:25:23;99062.44;;;14.40;76.13
80733;BME280;70130;44.534;18.678;2023-06-19T01:27:49;99064.69;;;14.38;75.80
80733;BME280;70130;44.534;18.678;2023-06-19T01:30:16;99060.16;;;14.42;75.44
80733;BME280;70130;44.534;18.678;2023-06-19T01:32:52;99061.53;;;14.36;75.48
80733;BME280;70130;44.534;18.678;2023-06-19T01:35:23;99053.66;;;14.31;75.59
80733;BME280;70130;44.534;18.678;2023-06-19T01:37:52;99060.50;;;14.41;75.44
80733;BME280;70130;44.534;18.678;2023-06-19T01:40:18;99052.53;;;14.32;75.82
80733;BME280;70130;44.534;18.678;2023-06-19T01:42:48;99048.34;;;14.19;76.12
80733;BME280;70130;44.534;18.678;2023-06-19T01:45:14;99050.81;;;14.24;75.84
80733;BME280;70130;44.534;18.678;2023-06-19T01:47:42;99055.84;;;14.10;76.31
80733;BME280;70130;44.534;18.678;2023-06-19T01:50:10;99053.31;;;14.17;75.85
80733;BME280;70130;44.534;18.678;2023-06-19T01:52:37;99054.22;;;13.93;76.27
80733;BME280;70130;44.534;18.678;2023-06-19T01:55:03;99047.00;;;13.97;76.63
80733;BME280;70130;44.534;18.678;2023-06-19T01:57:29;99043.88;;;13.95;76.55
80733;BME280;70130;44.534;18.678;2023-06-19T01:59:54;99040.13;;;14.00;76.28
80733;BME280;70130;44.534;18.678;2023-06-19T02:02:21;99031.16;;;13.96;76.09
80733;BME280;70130;44.534;18.678;2023-06-19T02:04:49;99030.63;;;13.90;76.23
80733;BME280;70130;44.534;18.678;2023-06-19T02:07:14;99025.38;;;13.81;76.40
80733;BME280;70130;44.534;18.678;2023-06-19T02:09:40;99029.59;;;13.67;77.05
80733;BME280;70130;44.534;18.678;2023-06-19T02:12:07;99028.31;;;13.76;76.78
80733;BME280;70130;44.534;18.678;2023-06-19T02:14:33;99028.75;;;13.78;76.60
80733;BME280;70130;44.534;18.678;2023-06-19T02:17:00;99037.09;;;13.73;76.76
80733;BME280;70130;44.534;18.678;2023-06-19T02:19:25;99034.88;;;13.63;76.83
80733;BME280;70130;44.534;18.678;2023-06-19T02:21:51;99031.06;;;13.64;76.52
80733;BME280;70130;44.534;18.678;2023-06-19T02:24:16;99032.63;;;13.65;77.00
80733;BME280;70130;44.534;18.678;2023-06-19T02:26:42;99032.63;;;13.65;76.76
80733;BME280;70130;44.534;18.678;2023-06-19T02:29:09;99043.91;;;13.55;77.26
80733;BME280;70130;44.534;18.678;2023-06-19T02:31:35;99039.88;;;13.49;77.64
80733;BME280;70130;44.534;18.678;2023-06-19T02:34:00;99041.78;;;13.49;77.44
80733;BME280;70130;44.534;18.678;2023-06-19T02:36:26;99045.34;;;13.53;77.79
80733;BME280;70130;44.534;18.678;2023-06-19T02:38:52;99042.97;;;13.63;77.46
80733;BME280;70130;44.534;18.678;2023-06-19T02:41:18;99048.13;;;13.68;77.53
80733;BME280;70130;44.534;18.678;2023-06-19T02:43:44;99045.44;;;13.68;77.13
80733;BME280;70130;44.534;18.678;2023-06-19T02:46:15;99043.44;;;13.65;76.83
80733;BME280;70130;44.534;18.678;2023-06-19T02:48:40;99043.06;;;13.67;76.78
80733;BME280;70130;44.534;18.678;2023-06-19T02:51:06;99036.47;;;13.52;77.15
80733;BME280;70130;44.534;18.678;2023-06-19T02:53:32;99043.13;;;13.55;76.98
80733;BME280;70130;44.534;18.678;2023-06-19T02:55:57;99035.28;;;13.50;77.04
80733;BME280;70130;44.534;18.678;2023-06-19T02:58:23;99047.25;;;13.52;77.14
80733;BME280;70130;44.534;18.678;2023-06-19T03:00:49;99043.91;;;13.55;76.97
80733;BME280;70130;44.534;18.678;2023-06-19T03:03:15;99049.22;;;13.52;77.20
80733;BME280;70130;44.534;18.678;2023-06-19T03:05:41;99050.56;;;13.46;77.26
80733;BME280;70130;44.534;18.678;2023-06-19T03:08:06;99055.72;;;13.51;77.21
80733;BME280;70130;44.534;18.678;2023-06-19T03:10:32;99049.09;;;13.48;77.15
80733;BME280;70130;44.534;18.678;2023-06-19T03:12:58;99049.31;;;13.43;77.18
80733;BME280;70130;44.534;18.678;2023-06-19T03:15:24;99054.50;;;13.36;77.48
80733;BME280;70130;44.534;18.678;2023-06-19T03:17:52;99056.75;;;13.34;77.36
80733;BME280;70130;44.534;18.678;2023-06-19T03:20:19;99066.97;;;13.28;77.60
80733;BME280;70130;44.534;18.678;2023-06-19T03:22:55;99060.56;;;13.33;77.40
80733;BME280;70130;44.534;18.678;2023-06-19T03:25:23;99065.53;;;13.31;77.53
80733;BME280;70130;44.534;18.678;2023-06-19T03:27:49;99065.72;;;13.38;77.20
80733;BME280;70130;44.534;18.678;2023-06-19T03:30:14;99061.91;;;13.39;77.13
80733;BME280;70130;44.534;18.678;2023-06-19T03:32:45;99066.50;;;13.38;77.06
80733;BME280;70130;44.534;18.678;2023-06-19T03:35:20;99057.44;;;13.31;77.00
80733;BME280;70130;44.534;18.678;2023-06-19T03:37:46;99061.94;;;13.15;77.23
80733;BME280;70130;44.534;18.678;2023-06-19T03:40:12;99059.03;;;13.20;77.42
80733;BME280;70130;44.534;18.678;2023-06-19T03:42:41;99065.63;;;13.34;77.13
80733;BME280;70130;44.534;18.678;2023-06-19T03:45:07;99071.56;;;13.40;76.66
80733;BME280;70130;44.534;18.678;2023-06-19T03:47:34;99064.38;;;13.44;76.34
80733;BME280;70130;44.534;18.678;2023-06-19T03:49:59;99060.47;;;13.42;76.56
80733;BME280;70130;44.534;18.678;2023-06-19T03:52:25;99069.66;;;13.28;77.04
80733;BME280;70130;44.534;18.678;2023-06-19T03:54:50;99062.78;;;13.43;76.66
80733;BME280;70130;44.534;18.678;2023-06-19T03:57:18;99057.53;;;13.47;76.61
80733;BME280;70130;44.534;18.678;2023-06-19T03:59:43;99063.44;;;13.52;76.32
80733;BME280;70130;44.534;18.678;2023-06-19T04:02:09;99056.84;;;13.50;76.49
80733;BME280;70130;44.534;18.678;2023-06-19T04:04:35;99061.66;;;13.56;76.30
80733;BME280;70130;44.534;18.678;2023-06-19T04:07:01;99072.53;;;13.60;76.07
80733;BME280;70130;44.534;18.678;2023-06-19T04:09:26;99065.44;;;13.67;75.84
80733;BME280;70130;44.534;18.678;2023-06-19T04:11:53;99074.66;;;13.66;75.58
80733;BME280;70130;44.534;18.678;2023-06-19T04:14:18;99066.66;;;13.70;75.65
80733;BME280;70130;44.534;18.678;2023-06-19T04:16:44;99066.75;;;13.73;75.80
80733;BME280;70130;44.534;18.678;2023-06-19T04:19:09;99067.88;;;13.72;75.51
80733;BME280;70130;44.534;18.678;2023-06-19T04:21:35;99061.56;;;13.80;75.58
80733;BME280;70130;44.534;18.678;2023-06-19T04:24:01;99068.63;;;13.85;75.66
80733;BME280;70130;44.534;18.678;2023-06-19T04:26:26;99063.91;;;13.82;75.30
80733;BME280;70130;44.534;18.678;2023-06-19T04:28:52;99064.28;;;13.80;75.82
80733;BME280;70130;44.534;18.678;2023-06-19T04:31:18;99068.63;;;13.85;76.03
80733;BME280;70130;44.534;18.678;2023-06-19T04:33:45;99070.56;;;13.84;76.09
80733;BME280;70130;44.534;18.678;2023-06-19T04:36:10;99068.41;;;13.90;76.42
80733;BME280;70130;44.534;18.678;2023-06-19T04:38:36;99073.44;;;13.92;76.23
80733;BME280;70130;44.534;18.678;2023-06-19T04:41:02;99068.47;;;13.94;76.42
80733;BME280;70130;44.534;18.678;2023-06-19T04:43:27;99063.72;;;14.03;76.69
80733;BME280;70130;44.534;18.678;2023-06-19T04:45:53;99067.84;;;14.12;76.20
80733;BME280;70130;44.534;18.678;2023-06-19T04:48:18;99070.72;;;14.19;76.26
80733;BME280;70130;44.534;18.678;2023-06-19T04:50:44;99064.88;;;14.17;76.18
80733;BME280;70130;44.534;18.678;2023-06-19T04:53:10;99068.13;;;14.23;76.17
80733;BME280;70130;44.534;18.678;2023-06-19T04:55:35;99072.47;;;14.27;75.81
80733;BME280;70130;44.534;18.678;2023-06-19T04:58:01;99074.38;;;14.27;76.00
80733;BME280;70130;44.534;18.678;2023-06-19T05:00:26;99072.66;;;14.19;76.29
80733;BME280;70130;44.534;18.678;2023-06-19T05:02:52;99077.53;;;14.29;76.23
80733;BME280;70130;44.534;18.678;2023-06-19T05:05:18;99068.97;;;14.39;76.05
80733;BME280;70130;44.534;18.678;2023-06-19T05:07:44;99071.84;;;14.46;76.02
80733;BME280;70130;44.534;18.678;2023-06-19T05:10:10;99072.19;;;14.60;75.67
80733;BME280;70130;44.534;18.678;2023-06-19T05:12:36;99069.41;;;14.73;75.61
80733;BME280;70130;44.534;18.678;2023-06-19T05:15:02;99070.88;;;14.86;75.00
80733;BME280;70130;44.534;18.678;2023-06-19T05:17:28;99076.47;;;14.93;74.80
80733;BME280;70130;44.534;18.678;2023-06-19T05:19:53;99071.22;;;15.00;74.56
80733;BME280;70130;44.534;18.678;2023-06-19T05:22:19;99080.22;;;15.04;74.58
80733;BME280;70130;44.534;18.678;2023-06-19T05:24:47;99073.38;;;15.10;74.10
80733;BME280;70130;44.534;18.678;2023-06-19T05:27:12;99076.72;;;15.19;73.95
80733;BME280;70130;44.534;18.678;2023-06-19T05:29:38;99074.59;;;15.28;73.48
80733;BME280;70130;44.534;18.678;2023-06-19T05:32:04;99084.06;;;15.38;72.94
80733;BME280;70130;44.534;18.678;2023-06-19T05:34:29;99084.22;;;15.45;72.73
80733;BME280;70130;44.534;18.678;2023-06-19T05:36:55;99073.91;;;15.50;73.10
80733;BME280;70130;44.534;18.678;2023-06-19T05:39:21;99076.09;;;15.61;72.41
80733;BME280;70130;44.534;18.678;2023-06-19T05:41:46;99084.78;;;15.70;72.04
80733;BME280;70130;44.534;18.678;2023-06-19T05:44:12;99076.47;;;15.78;71.94
80733;BME280;70130;44.534;18.678;2023-06-19T05:46:42;99080.66;;;15.95;71.38
80733;BME280;70130;44.534;18.678;2023-06-19T05:49:08;99090.50;;;16.03;71.62
80733;BME280;70130;44.534;18.678;2023-06-19T05:51:33;99083.63;;;16.09;71.47
80733;BME280;70130;44.534;18.678;2023-06-19T05:53:59;99081.47;;;16.18;71.50
80733;BME280;70130;44.534;18.678;2023-06-19T05:56:32;99089.31;;;16.23;70.82
80733;BME280;70130;44.534;18.678;2023-06-19T05:59:02;99086.41;;;16.32;71.24
80733;BME280;70130;44.534;18.678;2023-06-19T06:01:28;99084.59;;;16.39;71.00
80733;BME280;70130;44.534;18.678;2023-06-19T06:03:55;99089.41;;;16.50;70.28
80733;BME280;70130;44.534;18.678;2023-06-19T06:06:23;99093.81;;;16.58;69.98
80733;BME280;70130;44.534;18.678;2023-06-19T06:08:49;99089.78;;;16.67;69.98
80733;BME280;70130;44.534;18.678;2023-06-19T06:11:14;99085.66;;;16.77;69.24
80733;BME280;70130;44.534;18.678;2023-06-19T06:13:40;99093.91;;;16.84;68.94
80733;BME280;70130;44.534;18.678;2023-06-19T06:16:06;99099.16;;;16.96;68.31
80733;BME280;70130;44.534;18.678;2023-06-19T06:18:31;99106.66;;;17.06;67.43
80733;BME280;70130;44.534;18.678;2023-06-19T06:20:57;99106.06;;;17.16;67.28
80733;BME280;70130;44.534;18.678;2023-06-19T06:23:24;99096.06;;;17.24;66.54
80733;BME280;70130;44.534;18.678;2023-06-19T06:25:50;99100.06;;;17.30;66.18
80733;BME280;70130;44.534;18.678;2023-06-19T06:28:15;99103.31;;;17.43;65.61
80733;BME280;70130;44.534;18.678;2023-06-19T06:30:43;99102.34;;;17.54;65.10
80733;BME280;70130;44.534;18.678;2023-06-19T06:33:09;99096.34;;;17.68;64.25
80733;BME280;70130;44.534;18.678;2023-06-19T06:35:34;99099.56;;;17.77;63.81
80733;BME280;70130;44.534;18.678;2023-06-19T06:38:04;99096.91;;;17.81;63.24
80733;BME280;70130;44.534;18.678;2023-06-19T06:40:29;99099.31;;;17.89;63.19
80733;BME280;70130;44.534;18.678;2023-06-19T06:42:55;99101.38;;;17.99;63.45
80733;BME280;70130;44.534;18.678;2023-06-19T06:45:21;99098.72;;;18.03;63.37
80733;BME280;70130;44.534;18.678;2023-06-19T06:47:47;99105.03;;;18.10;63.31
80733;BME280;70130;44.534;18.678;2023-06-19T06:50:12;99098.13;;;18.20;63.00
80733;BME280;70130;44.534;18.678;2023-06-19T06:52:38;99102.50;;;18.32;62.67
80733;BME280;70130;44.534;18.678;2023-06-19T06:55:05;99106.50;;;18.41;62.70
80733;BME280;70130;44.534;18.678;2023-06-19T06:57:31;99100.78;;;18.50;61.57
80733;BME280;70130;44.534;18.678;2023-06-19T06:59:56;99105.50;;;18.57;59.95
80733;BME280;70130;44.534;18.678;2023-06-19T07:02:22;99096.31;;;18.68;60.02
80733;BME280;70130;44.534;18.678;2023-06-19T07:04:48;99102.63;;;18.79;59.88
80733;BME280;70130;44.534;18.678;2023-06-19T07:07:14;99104.72;;;18.96;59.22
80733;BME280;70130;44.534;18.678;2023-06-19T07:09:39;99109.91;;;19.19;57.15
80733;BME280;70130;44.534;18.678;2023-06-19T07:12:07;99107.03;;;19.46;55.82
80733;BME280;70130;44.534;18.678;2023-06-19T07:14:34;99106.31;;;19.56;57.01
80733;BME280;70130;44.534;18.678;2023-06-19T07:17:00;99105.66;;;19.76;55.76
80733;BME280;70130;44.534;18.678;2023-06-19T07:19:26;99108.00;;;19.81;55.42
80733;BME280;70130;44.534;18.678;2023-06-19T07:21:51;99102.91;;;19.76;56.85
80733;BME280;70130;44.534;18.678;2023-06-19T07:24:17;99102.56;;;19.78;55.50
80733;BME280;70130;44.534;18.678;2023-06-19T07:26:43;99105.66;;;19.83;55.79
80733;BME280;70130;44.534;18.678;2023-06-19T07:29:10;99106.47;;;19.88;56.04
80733;BME280;70130;44.534;18.678;2023-06-19T07:31:36;99104.91;;;19.90;56.35
80733;BME280;70130;44.534;18.678;2023-06-19T07:34:02;99101.81;;;19.92;55.30
80733;BME280;70130;44.534;18.678;2023-06-19T07:36:27;99108.09;;;20.06;54.21
80733;BME280;70130;44.534;18.678;2023-06-19T07:38:55;99099.13;;;19.99;55.12
80733;BME280;70130;44.534;18.678;2023-06-19T07:41:20;99099.16;;;20.06;55.00
80733;BME280;70130;44.534;18.678;2023-06-19T07:43:46;99098.03;;;20.21;55.32
80733;BME280;70130;44.534;18.678;2023-06-19T07:46:12;99094.94;;;20.22;55.12
80733;BME280;70130;44.534;18.678;2023-06-19T07:48:39;99088.00;;;20.53;53.99
80733;BME280;70130;44.534;18.678;2023-06-19T07:51:08;99083.34;;;20.79;52.28
80733;BME280;70130;44.534;18.678;2023-06-19T07:53:36;99086.47;;;20.88;51.41
80733;BME280;70130;44.534;18.678;2023-06-19T07:56:01;99080.63;;;20.86;53.11
80733;BME280;70130;44.534;18.678;2023-06-19T07:58:27;99089.59;;;21.04;52.20
80733;BME280;70130;44.534;18.678;2023-06-19T08:00:53;99085.31;;;20.96;52.28
80733;BME280;70130;44.534;18.678;2023-06-19T08:03:18;99089.59;;;20.90;52.63
80733;BME280;70130;44.534;18.678;2023-06-19T08:05:44;99083.34;;;20.93;52.17
80733;BME280;70130;44.534;18.678;2023-06-19T08:08:14;99085.69;;;20.94;52.38
80733;BME280;70130;44.534;18.678;2023-06-19T08:10:40;99082.56;;;20.99;52.38
80733;BME280;70130;44.534;18.678;2023-06-19T08:13:06;99081.38;;;21.07;53.46
80733;BME280;70130;44.534;18.678;2023-06-19T08:15:32;99075.59;;;21.16;52.88
80733;BME280;70130;44.534;18.678;2023-06-19T08:17:57;99077.13;;;21.24;51.87
80733;BME280;70130;44.534;18.678;2023-06-19T08:20:23;99090.75;;;21.28;52.14
80733;BME280;70130;44.534;18.678;2023-06-19T08:22:49;99071.25;;;21.40;52.18
80733;BME280;70130;44.534;18.678;2023-06-19T08:25:15;99075.88;;;21.53;52.32
80733;BME280;70130;44.534;18.678;2023-06-19T08:27:41;99080.13;;;21.62;53.37
80733;BME280;70130;44.534;18.678;2023-06-19T08:30:11;99077.78;;;21.67;53.91
80733;BME280;70130;44.534;18.678;2023-06-19T08:32:37;99075.44;;;21.69;54.10
80733;BME280;70130;44.534;18.678;2023-06-19T08:35:03;99075.78;;;21.82;55.20
80733;BME280;70130;44.534;18.678;2023-06-19T08:37:30;99077.69;;;21.99;53.10
80733;BME280;70130;44.534;18.678;2023-06-19T08:39:56;99065.53;;;22.11;52.31
80733;BME280;70130;44.534;18.678;2023-06-19T08:42:22;99070.59;;;22.12;52.44
80733;BME280;70130;44.534;18.678;2023-06-19T08:44:48;99068.53;;;22.34;52.05
80733;BME280;70130;44.534;18.678;2023-06-19T08:47:14;99068.19;;;22.25;52.27
80733;BME280;70130;44.534;18.678;2023-06-19T08:49:40;99065.81;;;22.34;52.88
80733;BME280;70130;44.534;18.678;2023-06-19T08:52:08;99066.34;;;22.66;52.54
80733;BME280;70130;44.534;18.678;2023-06-19T08:54:35;99067.97;;;22.57;52.79
80733;BME280;70130;44.534;18.678;2023-06-19T08:57:09;99059.66;;;22.74;53.11
80733;BME280;70130;44.534;18.678;2023-06-19T08:59:41;99064.78;;;22.72;53.33
80733;BME280;70130;44.534;18.678;2023-06-19T09:02:16;99054.59;;;22.73;53.40
80733;BME280;70130;44.534;18.678;2023-06-19T09:04:43;99050.25;;;22.79;54.31
80733;BME280;70130;44.534;18.678;2023-06-19T09:07:09;99051.34;;;22.89;54.33
80733;BME280;70130;44.534;18.678;2023-06-19T09:09:46;99050.13;;;22.93;53.73
80733;BME280;70130;44.534;18.678;2023-06-19T09:12:13;99043.41;;;23.01;52.87
80733;BME280;70130;44.534;18.678;2023-06-19T09:14:43;99044.97;;;23.02;52.07
80733;BME280;70130;44.534;18.678;2023-06-19T09:17:17;99046.06;;;23.12;52.97
80733;BME280;70130;44.534;18.678;2023-06-19T09:19:53;99042.50;;;23.15;52.19
80733;BME280;70130;44.534;18.678;2023-06-19T09:22:22;99040.47;;;23.22;51.94
80733;BME280;70130;44.534;18.678;2023-06-19T09:24:50;99032.91;;;23.34;50.30
80733;BME280;70130;44.534;18.678;2023-06-19T09:27:19;99028.50;;;23.47;50.57
80733;BME280;70130;44.534;18.678;2023-06-19T09:29:49;99035.72;;;23.64;49.80
80733;BME280;70130;44.534;18.678;2023-06-19T09:32:26;99032.53;;;23.69;49.19
80733;BME280;70130;44.534;18.678;2023-06-19T09:34:57;99030.75;;;23.86;47.52
80733;BME280;70130;44.534;18.678;2023-06-19T09:37:29;99019.59;;;24.00;45.97
80733;BME280;70130;44.534;18.678;2023-06-19T09:40:05;99035.59;;;24.05;46.15
80733;BME280;70130;44.534;18.678;2023-06-19T09:42:40;99028.81;;;24.17;45.56
80733;BME280;70130;44.534;18.678;2023-06-19T09:45:13;99019.34;;;24.21;45.11
80733;BME280;70130;44.534;18.678;2023-06-19T09:47:46;99022.03;;;24.25;45.23
80733;BME280;70130;44.534;18.678;2023-06-19T09:50:13;99015.19;;;24.36;45.07
80733;BME280;70130;44.534;18.678;2023-06-19T09:52:44;99012.69;;;24.45;45.29
80733;BME280;70130;44.534;18.678;2023-06-19T09:55:13;99019.63;;;24.53;46.31
80733;BME280;70130;44.534;18.678;2023-06-19T09:57:44;99014.84;;;24.58;44.47
80733;BME280;70130;44.534;18.678;2023-06-19T10:00:12;99008.00;;;24.69;43.80
80733;BME280;70130;44.534;18.678;2023-06-19T10:02:44;99009.06;;;24.75;43.24
80733;BME280;70130;44.534;18.678;2023-06-19T10:05:10;99008.94;;;24.82;42.88
80733;BME280;70130;44.534;18.678;2023-06-19T10:07:38;98997.13;;;24.85;41.21
80733;BME280;70130;44.534;18.678;2023-06-19T10:10:09;99002.09;;;24.94;40.85
80733;BME280;70130;44.534;18.678;2023-06-19T10:12:41;99000.91;;;24.95;42.28
80733;BME280;70130;44.534;18.678;2023-06-19T10:17:59;98998.97;;;25.15;41.73
80733;BME280;70130;44.534;18.678;2023-06-19T10:20:27;98989.88;;;25.18;40.67
80733;BME280;70130;44.534;18.678;2023-06-19T10:23:09;98991.66;;;25.48;38.07
80733;BME280;70130;44.534;18.678;2023-06-19T10:25:41;98999.19;;;25.44;39.86
80733;BME280;70130;44.534;18.678;2023-06-19T10:28:23;98992.56;;;25.42;37.86
80733;BME280;70130;44.534;18.678;2023-06-19T10:30:59;98987.06;;;25.42;37.65
80733;BME280;70130;44.534;18.678;2023-06-19T10:33:28;98987.84;;;25.62;38.65
80733;BME280;70130;44.534;18.678;2023-06-19T10:39:43;98979.28;;;26.12;35.60
80733;BME280;70130;44.534;18.678;2023-06-19T10:42:09;98980.81;;;26.33;34.15
80733;BME280;70130;44.534;18.678;2023-06-19T10:44:35;98978.75;;;26.37;36.04
80733;BME280;70130;44.534;18.678;2023-06-19T10:47:04;98977.38;;;26.29;34.71
80733;BME280;70130;44.534;18.678;2023-06-19T10:49:29;98978.94;;;26.30;32.37
80733;BME280;70130;44.534;18.678;2023-06-19T10:52:00;98973.66;;;26.35;31.71
80733;BME280;70130;44.534;18.678;2023-06-19T10:54:29;98972.72;;;26.42;33.64
80733;BME280;70130;44.534;18.678;2023-06-19T10:56:57;98972.81;;;26.38;32.36
80733;BME280;70130;44.534;18.678;2023-06-19T10:59:23;98970.22;;;26.47;33.37
80733;BME280;70130;44.534;18.678;2023-06-19T11:01:48;98964.47;;;26.58;33.28
80733;BME280;70130;44.534;18.678;2023-06-19T11:04:17;98953.59;;;26.83;32.52
80733;BME280;70130;44.534;18.678;2023-06-19T11:06:44;98956.06;;;26.94;32.74
80733;BME280;70130;44.534;18.678;2023-06-19T11:09:11;98949.19;;;27.02;31.54
80733;BME280;70130;44.534;18.678;2023-06-19T11:11:38;98948.25;;;27.21;32.76
80733;BME280;70130;44.534;18.678;2023-06-19T11:14:04;98951.47;;;27.32;31.62
80733;BME280;70130;44.534;18.678;2023-06-19T11:16:30;98949.88;;;27.19;31.89
80733;BME280;70130;44.534;18.678;2023-06-19T11:18:56;98946.59;;;27.24;32.33
80733;BME280;70130;44.534;18.678;2023-06-19T11:21:37;98948.88;;;27.13;31.84
80733;BME280;70130;44.534;18.678;2023-06-19T11:24:12;98947.81;;;27.23;31.25
80733;BME280;70130;44.534;18.678;2023-06-19T11:26:48;98945.63;;;27.30;32.43
80733;BME280;70130;44.534;18.678;2023-06-19T11:31:45;98937.97;;;27.51;31.55
80733;BME280;70130;44.534;18.678;2023-06-19T11:34:11;98938.75;;;27.51;31.67
80733;BME280;70130;44.534;18.678;2023-06-19T11:36:37;98933.13;;;27.55;30.61
80733;BME280;70130;44.534;18.678;2023-06-19T11:39:04;98936.22;;;27.57;28.79
80733;BME280;70130;44.534;18.678;2023-06-19T11:41:35;98933.69;;;27.75;27.58
80733;BME280;70130;44.534;18.678;2023-06-19T11:44:06;98922.00;;;27.83;28.56
80733;BME280;70130;44.534;18.678;2023-06-19T11:46:33;98932.25;;;27.83;27.82
80733;BME280;70130;44.534;18.678;2023-06-19T11:49:16;98918.72;;;27.76;27.76
80733;BME280;70130;44.534;18.678;2023-06-19T11:51:46;98921.91;;;27.74;28.60
80733;BME280;70130;44.534;18.678;2023-06-19T11:54:14;98913.06;;;27.79;28.23
80733;BME280;70130;44.534;18.678;2023-06-19T11:56:46;98912.09;;;27.86;27.45
80733;BME280;70130;44.534;18.678;2023-06-19T11:59:13;98909.31;;;27.99;26.94
80733;BME280;70130;44.534;18.678;2023-06-19T12:01:39;98908.44;;;27.89;27.74
80733;BME280;70130;44.534;18.678;2023-06-19T12:04:05;98908.66;;;28.07;28.17
80733;BME280;70130;44.534;18.678;2023-06-19T12:06:31;98905.13;;;28.07;28.30
80733;BME280;70130;44.534;18.678;2023-06-19T12:08:57;98902.81;;;28.05;27.34
80733;BME280;70130;44.534;18.678;2023-06-19T12:11:23;98894.41;;;28.09;27.79
80733;BME280;70130;44.534;18.678;2023-06-19T12:13:50;98898.72;;;28.22;27.86
80733;BME280;70130;44.534;18.678;2023-06-19T12:16:16;98891.41;;;28.28;28.14
80733;BME280;70130;44.534;18.678;2023-06-19T12:18:41;98892.13;;;28.20;27.60
80733;BME280;70130;44.534;18.678;2023-06-19T12:21:07;98886.53;;;28.32;27.54
80733;BME280;70130;44.534;18.678;2023-06-19T12:23:33;98884.34;;;28.27;27.10
80733;BME280;70130;44.534;18.678;2023-06-19T12:25:59;98886.53;;;28.32;27.49
80733;BME280;70130;44.534;18.678;2023-06-19T12:28:24;98880.56;;;28.47;27.86
80733;BME280;70130;44.534;18.678;2023-06-19T12:30:51;98873.56;;;28.55;27.98
80733;BME280;70130;44.534;18.678;2023-06-19T12:33:18;98876.78;;;28.53;28.28
80733;BME280;70130;44.534;18.678;2023-06-19T12:35:44;98875.56;;;28.89;28.25
80733;BME280;70130;44.534;18.678;2023-06-19T12:38:10;98867.03;;;28.61;28.10
80733;BME280;70130;44.534;18.678;2023-06-19T12:40:36;98876.47;;;28.86;27.64
80733;BME280;70130;44.534;18.678;2023-06-19T12:43:02;98882.00;;;28.86;27.53
80733;BME280;70130;44.534;18.678;2023-06-19T12:45:28;98878.19;;;28.92;27.57
80733;BME280;70130;44.534;18.678;2023-06-19T12:47:54;98875.66;;;29.07;27.70
80733;BME280;70130;44.534;18.678;2023-06-19T12:50:19;98876.50;;;29.38;28.27
80733;BME280;70130;44.534;18.678;2023-06-19T12:52:45;98874.66;;;29.13;27.58
80733;BME280;70130;44.534;18.678;2023-06-19T12:55:11;98874.31;;;29.11;27.35
80733;BME280;70130;44.534;18.678;2023-06-19T12:57:37;98873.28;;;28.96;27.07
80733;BME280;70130;44.534;18.678;2023-06-19T13:00:03;98871.78;;;28.95;27.15